| time (UTC) | temp F | wind direction | speed MPH | gust MPH | rain 1hr in | rain 24hr in | rain mn in | humidity % | barometer mb |
| 20260507093516 | 55 | 121 | 3.0 | 8.0 | 0.00 | 0.17 | 0.15 | 91 | 1019.6 |
| 20260507093034 | 60 | 10 | 1.0 | 5.0 | 0.00 | 0.07 | 0.02 | 78 | 1016.9 |
| 20260507092533 | 56 | 119 | 3.0 | 8.0 | 0.00 | 0.17 | 0.15 | 85 | 1019.4 |
| 20260507092050 | 60 | 0 | 1.0 | 5.0 | 0.00 | 0.07 | 0.02 | 80 | 1016.6 |
| 20260507091529 | 55 | 64 | 2.0 | 6.0 | 0.00 | 0.17 | 0.15 | 87 | 1019.2 |
| 20260507091027 | 60 | 37 | 2.0 | 4.0 | 0.00 | 0.07 | 0.02 | 78 | 1016.7 |
| 20260507090525 | 55 | 108 | 3.0 | 6.0 | 0.00 | 0.17 | 0.15 | 90 | 1019.1 |
| 20260507090023 | 59 | 38 | 2.0 | 4.0 | 0.00 | 0.07 | 0.02 | 82 | 1016.8 |
| 20260507085521 | 54 | 69 | 2.0 | 5.0 | 0.00 | 0.17 | 0.15 | 92 | 1019.1 |
| 20260507085019 | 59 | 33 | 1.0 | 3.0 | 0.00 | 0.07 | 0.02 | 83 | 1016.8 |
| 20260507084518 | 55 | 73 | 2.0 | 5.0 | 0.00 | 0.17 | 0.15 | 92 | 1019.2 |
| 20260507084016 | 58 | 2 | 1.0 | 5.0 | 0.00 | 0.07 | 0.02 | 84 | 1016.9 |
| 20260507083534 | 52 | 115 | 2.0 | 5.0 | 0.00 | 0.17 | 0.15 | 92 | 1019.2 |
| 20260507083053 | 59 | 32 | 1.0 | 3.0 | 0.00 | 0.07 | 0.02 | 83 | 1016.8 |
| 20260507082530 | 53 | 95 | 2.0 | 5.0 | 0.00 | 0.17 | 0.15 | 96 | 1019.3 |
| 20260507082028 | 59 | 26 | 1.0 | 4.0 | 0.00 | 0.07 | 0.02 | 84 | 1016.7 |
| 20260507081527 | 50 | 103 | 2.0 | 5.0 | 0.00 | 0.17 | 0.15 | 99 | 1019.2 |
| 20260507081025 | 58 | 32 | 1.0 | 4.0 | 0.00 | 0.07 | 0.02 | 84 | 1016.8 |
| 20260507080523 | 50 | 125 | 3.0 | 7.0 | 0.00 | 0.17 | 0.15 | 98 | 1019.3 |
| 20260507080022 | 57 | 13 | 1.0 | 4.0 | 0.00 | 0.07 | 0.02 | 85 | 1016.7 |
| 20260507075519 | 51 | 97 | 3.0 | 6.0 | 0.00 | 0.17 | 0.15 | 99 | 1019.2 |
| 20260507075018 | 57 | 353 | 1.0 | 3.0 | 0.00 | 0.07 | 0.02 | 85 | 1016.8 |
| 20260507074535 | 51 | 69 | 2.0 | 5.0 | 0.00 | 0.17 | 0.15 | 99 | 1019.1 |
| 20260507074034 | 56 | 27 | 1.0 | 2.0 | 0.00 | 0.07 | 0.02 | 88 | 1016.8 |
| 20260507073531 | 51 | 103 | 2.0 | 4.0 | 0.00 | 0.17 | 0.15 | 99 | 1019.1 |
| 20260507073031 | 56 | 12 | 1.0 | 3.0 | 0.00 | 0.07 | 0.02 | 86 | 1016.9 |
| 20260507072528 | 51 | 96 | 1.0 | 4.0 | 0.00 | 0.17 | 0.15 | 99 | 1019.2 |
| 20260507072026 | 56 | 20 | 1.0 | 2.0 | 0.00 | 0.07 | 0.02 | 88 | 1016.8 |
| 20260507071524 | 51 | 359 | 1.0 | 3.0 | 0.00 | 0.17 | 0.15 | 99 | 1019.2 |
| 20260507071023 | 56 | 14 | 1.0 | 3.0 | 0.00 | 0.07 | 0.02 | 87 | 1016.7 |
| 20260507070521 | 51 | 111 | 1.0 | 4.0 | 0.00 | 0.17 | 0.15 | 99 | 1019.0 |
| 20260507070019 | 60 | 30 | 1.0 | 2.0 | 0.00 | 0.07 | 0.02 | 80 | 1016.6 |
| 20260507065517 | 51 | 326 | 1.0 | 4.0 | 0.00 | 0.17 | 0.15 | 99 | 1018.7 |
| 20260507065035 | 58 | 99 | 1.0 | 6.0 | 0.00 | 0.07 | 0.02 | 77 | 1016.4 |
| 20260507064533 | 51 | 58 | 1.0 | 3.0 | 0.00 | 0.17 | 0.15 | 99 | 1018.7 |
| 20260507064032 | 57 | 98 | 2.0 | 4.0 | 0.00 | 0.07 | 0.02 | 81 | 1016.4 |
| 20260507063529 | 50 | 74 | 2.0 | 5.0 | 0.00 | 0.17 | 0.15 | 99 | 1018.4 |
| 20260507063028 | 57 | 91 | 2.0 | 3.0 | 0.00 | 0.07 | 0.02 | 84 | 1016.3 |
| 20260507062525 | 50 | 91 | 2.0 | 5.0 | 0.00 | 0.17 | 0.15 | 99 | 1018.5 |
| 20260507062024 | 56 | 68 | 1.0 | 4.0 | 0.00 | 0.08 | 0.02 | 86 | 1016.2 |
| 20260507061521 | 50 | 40 | 2.0 | 3.0 | 0.00 | 0.17 | 0.15 | 99 | 1018.2 |
| 20260507061021 | 53 | 73 | 3.0 | 4.0 | 0.00 | 0.09 | 0.02 | 90 | 1016.2 |
| 20260507060537 | 49 | 83 | 2.0 | 6.0 | 0.00 | 0.17 | 0.15 | 99 | 1018.3 |
| 20260507060017 | 52 | 95 | 2.0 | 4.0 | 0.00 | 0.10 | 0.02 | 92 | 1016.4 |
| 20260507055533 | 48 | 91 | 2.0 | 5.0 | 0.00 | 0.18 | 0.15 | 99 | 1018.3 |
| 20260507055034 | 52 | 116 | 2.0 | 4.0 | 0.00 | 0.11 | 0.02 | 94 | 1016.4 |
| 20260507054529 | 48 | 80 | 2.0 | 4.0 | 0.00 | 0.19 | 0.15 | 99 | 1018.3 |
| 20260507054030 | 52 | 113 | 2.0 | 4.0 | 0.00 | 0.12 | 0.02 | 94 | 1016.4 |
| 20260507053525 | 48 | 103 | 1.0 | 3.0 | 0.00 | 0.19 | 0.15 | 99 | 1018.4 |
| 20260507053026 | 51 | 85 | 3.0 | 4.0 | 0.00 | 0.13 | 0.02 | 95 | 1016.4 |
| 20260507052522 | 47 | 344 | 0.0 | 3.0 | 0.01 | 0.20 | 0.15 | 99 | 1018.3 |
| 20260507052023 | 50 | 110 | 2.0 | 3.0 | 0.00 | 0.13 | 0.02 | 95 | 1016.4 |
| 20260507051518 | 47 | 159 | 0.0 | 2.0 | 0.02 | 0.21 | 0.15 | 99 | 1018.2 |
| 20260507051019 | 50 | 111 | 2.0 | 3.0 | 0.00 | 0.13 | 0.02 | 95 | 1016.3 |
| 20260507050534 | 47 | 79 | 1.0 | 2.0 | 0.02 | 0.21 | 0.14 | 99 | 1018.2 |
| 20260507050016 | 50 | 114 | 2.0 | 4.0 | 0.00 | 0.12 | 0.01 | 95 | 1016.2 |
| 20260507045551 | 47 | 96 | 1.0 | 3.0 | 0.02 | 0.22 | 0.14 | 99 | 1018.1 |
| 20260507045032 | 49 | 136 | 3.0 | 5.0 | 0.00 | 0.12 | 0.01 | 95 | 1016.1 |
| 20260507044548 | 47 | 91 | 1.0 | 2.0 | 0.02 | 0.22 | 0.14 | 99 | 1018.0 |
| 20260507044109 | 49 | 143 | 3.0 | 4.0 | 0.00 | 0.12 | 0.01 | 95 | 1016.1 |
| 20260507043544 | 47 | 96 | 1.0 | 2.0 | 0.02 | 0.22 | 0.14 | 99 | 1018.0 |
| 20260507043025 | 49 | 117 | 2.0 | 4.0 | 0.00 | 0.12 | 0.01 | 95 | 1016.1 |
| 20260507042540 | 47 | 85 | 1.0 | 3.0 | 0.02 | 0.21 | 0.14 | 99 | 1018.1 |
| 20260507042021 | 49 | 100 | 1.0 | 3.0 | 0.00 | 0.12 | 0.01 | 94 | 1016.1 |
| 20260507041516 | 47 | 115 | 1.0 | 3.0 | 0.01 | 0.20 | 0.13 | 99 | 1018.0 |
| 20260507041038 | 50 | 68 | 1.0 | 3.0 | 0.00 | 0.12 | 0.01 | 93 | 1016.0 |
| 20260507040532 | 47 | 102 | 1.0 | 3.0 | 0.01 | 0.20 | 0.12 | 99 | 1017.9 |
| 20260507040034 | 49 | 51 | 2.0 | 3.0 | 0.00 | 0.12 | 0.01 | 93 | 1015.9 |
| 20260507035529 | 47 | 101 | 1.0 | 2.0 | 0.02 | 0.20 | 0.12 | 99 | 1017.8 |
| 20260507035030 | 49 | 65 | 2.0 | 3.0 | 0.00 | 0.12 | 0.01 | 94 | 1015.8 |
| 20260507034525 | 46 | 92 | 2.0 | 3.0 | 0.02 | 0.20 | 0.12 | 99 | 1017.7 |
| 20260507034027 | 49 | 84 | 2.0 | 3.0 | 0.00 | 0.12 | 0.01 | 95 | 1015.8 |
| 20260507033521 | 46 | 73 | 1.0 | 2.0 | 0.03 | 0.19 | 0.12 | 99 | 1017.7 |
| 20260507033023 | 49 | 106 | 3.0 | 5.0 | 0.00 | 0.12 | 0.01 | 95 | 1015.8 |
| 20260507032517 | 47 | 105 | 2.0 | 4.0 | 0.04 | 0.19 | 0.12 | 99 | 1017.8 |
| 20260507032020 | 49 | 109 | 2.0 | 4.0 | 0.00 | 0.12 | 0.01 | 96 | 1015.8 |
| 20260507031534 | 47 | 100 | 2.0 | 4.0 | 0.04 | 0.19 | 0.12 | 99 | 1017.7 |
| 20260507031036 | 49 | 73 | 2.0 | 3.0 | 0.00 | 0.12 | 0.01 | 96 | 1015.9 |
| 20260507030530 | 47 | 107 | 3.0 | 4.0 | 0.05 | 0.19 | 0.11 | 99 | 1017.8 |
| 20260507030033 | 49 | 124 | 2.0 | 4.0 | 0.00 | 0.12 | 0.01 | 96 | 1015.8 |
| 20260507025526 | 47 | 110 | 3.0 | 6.0 | 0.05 | 0.18 | 0.11 | 99 | 1017.7 |
| 20260507025029 | 49 | 150 | 3.0 | 4.0 | 0.00 | 0.12 | 0.01 | 95 | 1015.7 |
| 20260507024522 | 47 | 97 | 2.0 | 4.0 | 0.05 | 0.17 | 0.10 | 99 | 1017.9 |
| 20260507024026 | 49 | 134 | 3.0 | 6.0 | 0.00 | 0.12 | 0.01 | 94 | 1015.9 |
| 20260507023519 | 46 | 103 | 2.0 | 4.0 | 0.05 | 0.16 | 0.09 | 99 | 1017.7 |
| 20260507023042 | 49 | 8 | 2.0 | 4.0 | 0.00 | 0.12 | 0.01 | 94 | 1015.9 |
| 20260507022535 | 46 | 94 | 2.0 | 3.0 | 0.05 | 0.16 | 0.08 | 99 | 1017.6 |
| 20260507022018 | 49 | 347 | 1.0 | 4.0 | 0.00 | 0.12 | 0.01 | 94 | 1015.7 |
| 20260507021531 | 46 | 93 | 2.0 | 3.0 | 0.05 | 0.18 | 0.07 | 99 | 1017.7 |
| 20260507021034 | 49 | 120 | 2.0 | 4.0 | 0.00 | 0.12 | 0.01 | 95 | 1015.8 |
| 20260507020527 | 46 | 115 | 3.0 | 4.0 | 0.04 | 0.18 | 0.07 | 99 | 1017.7 |
| 20260507020031 | 49 | 14 | 2.0 | 4.0 | 0.00 | 0.12 | 0.01 | 93 | 1015.8 |
| 20260507015523 | 46 | 110 | 2.0 | 4.0 | 0.03 | 0.17 | 0.06 | 99 | 1017.8 |
| 20260507015047 | 49 | 95 | 2.0 | 4.0 | 0.00 | 0.12 | 0.01 | 95 | 1015.7 |
| 20260507014520 | 46 | 105 | 2.0 | 3.0 | 0.03 | 0.16 | 0.05 | 99 | 1017.6 |
| 20260507014023 | 49 | 56 | 2.0 | 4.0 | 0.00 | 0.12 | 0.01 | 96 | 1015.9 |
| 20260507013537 | 46 | 111 | 2.0 | 3.0 | 0.02 | 0.15 | 0.04 | 99 | 1017.6 |
| 20260507013020 | 49 | 138 | 2.0 | 5.0 | 0.00 | 0.12 | 0.01 | 96 | 1015.8 |
| 20260507012533 | 46 | 113 | 1.0 | 4.0 | 0.02 | 0.15 | 0.03 | 99 | 1017.7 |
| 20260507012036 | 49 | 131 | 2.0 | 4.0 | 0.00 | 0.13 | 0.01 | 95 | 1015.8 |
| 20260507011529 | 45 | 123 | 1.0 | 3.0 | 0.02 | 0.14 | 0.02 | 99 | 1017.7 |
| 20260507011053 | 49 | 64 | 2.0 | 4.0 | 0.00 | 0.13 | 0.01 | 96 | 1015.8 |
| 20260507010525 | 45 | 96 | 3.0 | 7.0 | 0.02 | 0.14 | 0.02 | 99 | 1017.6 |
| 20260507010029 | 49 | 40 | 2.0 | 3.0 | 0.00 | 0.13 | 0.01 | 96 | 1015.9 |
| 20260507005542 | 45 | 100 | 3.0 | 6.0 | 0.02 | 0.15 | 0.02 | 99 | 1017.7 |
| 20260507005025 | 49 | 141 | 3.0 | 5.0 | 0.00 | 0.13 | 0.01 | 96 | 1015.8 |
| 20260507004518 | 45 | 135 | 4.0 | 6.0 | 0.02 | 0.15 | 0.02 | 99 | 1017.7 |
| 20260507004022 | 49 | 149 | 2.0 | 5.0 | 0.00 | 0.13 | 0.01 | 96 | 1015.9 |
| 20260507003535 | 45 | 125 | 4.0 | 8.0 | 0.01 | 0.14 | 0.01 | 99 | 1017.7 |
| 20260507003038 | 49 | 75 | 2.0 | 4.0 | 0.01 | 0.13 | 0.01 | 96 | 1016.0 |
| 20260507002531 | 45 | 111 | 5.0 | 11.0 | 0.00 | 0.13 | 0.00 | 99 | 1017.9 |
| 20260507002035 | 49 | 50 | 1.0 | 3.0 | 0.00 | 0.12 | 0.01 | 96 | 1015.9 |
| 20260507001527 | 45 | 118 | 7.0 | 16.0 | 0.00 | 0.13 | 0.00 | 99 | 1017.9 |
| 20260507001031 | 49 | 27 | 1.0 | 2.0 | 0.00 | 0.12 | 0.01 | 95 | 1015.9 |
| 20260507000523 | 45 | 115 | 8.0 | 15.0 | 0.00 | 0.13 | 0.00 | 99 | 1017.8 |
| 20260507000028 | 49 | 66 | 2.0 | 3.0 | 0.00 | 0.12 | 0.01 | 94 | 1016.0 |
| 20260506235520 | 45 | 118 | 7.0 | 14.0 | 0.00 | 0.13 | 0.00 | 99 | 1017.7 |
| 20260506235024 | 49 | 60 | 2.0 | 3.0 | 0.00 | 0.12 | 0.01 | 92 | 1016.1 |
| 20260506234516 | 45 | 109 | 8.0 | 15.0 | 0.00 | 0.13 | 0.00 | 99 | 1017.7 |
| 20260506234040 | 49 | 99 | 3.0 | 7.0 | 0.00 | 0.12 | 0.01 | 94 | 1016.2 |
| 20260506233532 | 45 | 103 | 8.0 | 17.0 | 0.00 | 0.13 | 0.00 | 99 | 1017.9 |
| 20260506233017 | 49 | 138 | 3.0 | 4.0 | 0.00 | 0.12 | 0.00 | 94 | 1016.4 |
| 20260506232529 | 45 | 108 | 9.0 | 17.0 | 0.00 | 0.13 | 0.00 | 99 | 1018.0 |
| 20260506232033 | 49 | 161 | 3.0 | 4.0 | 0.00 | 0.12 | 0.00 | 93 | 1016.4 |
| 20260506231525 | 45 | 104 | 9.0 | 17.0 | 0.00 | 0.13 | 0.00 | 99 | 1018.0 |
| 20260506231029 | 50 | 160 | 3.0 | 5.0 | 0.00 | 0.12 | 0.00 | 91 | 1016.4 |
| 20260506230541 | 45 | 104 | 9.0 | 19.0 | 0.00 | 0.13 | 0.00 | 99 | 1018.0 |
| 20260506230026 | 50 | 99 | 2.0 | 4.0 | 0.00 | 0.12 | 0.00 | 85 | 1016.6 |
| 20260506225537 | 45 | 110 | 10.0 | 18.0 | 0.00 | 0.13 | 0.00 | 99 | 1018.1 |
| 20260506225022 | 50 | 57 | 1.0 | 2.0 | 0.00 | 0.12 | 0.00 | 84 | 1016.5 |
| 20260506224534 | 45 | 112 | 10.0 | 17.0 | 0.00 | 0.13 | 0.00 | 99 | 1018.2 |
| 20260506224018 | 50 | 178 | 1.0 | 3.0 | 0.01 | 0.12 | 0.00 | 89 | 1016.7 |
| 20260506223550 | 45 | 111 | 11.0 | 19.0 | 0.00 | 0.13 | 0.00 | 99 | 1018.3 |
| 20260506223035 | 50 | 99 | 1.0 | 2.0 | 0.02 | 0.12 | 0.00 | 91 | 1016.6 |
| 20260506222546 | 45 | 105 | 10.0 | 20.0 | 0.00 | 0.13 | 0.00 | 99 | 1018.3 |
| 20260506222051 | 49 | 93 | 2.0 | 4.0 | 0.02 | 0.12 | 0.00 | 91 | 1016.8 |
| 20260506221523 | 45 | 112 | 8.0 | 18.0 | 0.00 | 0.13 | 0.00 | 99 | 1018.4 |
| 20260506221028 | 49 | 135 | 3.0 | 4.0 | 0.02 | 0.12 | 0.00 | 93 | 1016.7 |
| 20260506220519 | 45 | 115 | 8.0 | 16.0 | 0.00 | 0.13 | 0.00 | 99 | 1018.4 |
| 20260506220024 | 49 | 160 | 4.0 | 7.0 | 0.03 | 0.12 | 0.00 | 93 | 1016.7 |
| 20260506215535 | 46 | 115 | 9.0 | 15.0 | 0.00 | 0.13 | 0.13 | 99 | 1018.5 |
| 20260506215041 | 50 | 165 | 4.0 | 8.0 | 0.03 | 0.11 | 0.11 | 92 | 1016.8 |
| 20260506214531 | 46 | 114 | 9.0 | 18.0 | 0.00 | 0.13 | 0.13 | 98 | 1018.5 |
| 20260506214017 | 50 | 167 | 4.0 | 8.0 | 0.03 | 0.11 | 0.11 | 91 | 1016.9 |
| 20260506213527 | 46 | 106 | 9.0 | 17.0 | 0.00 | 0.13 | 0.13 | 99 | 1018.6 |
| 20260506213033 | 51 | 143 | 4.0 | 11.0 | 0.03 | 0.10 | 0.10 | 85 | 1016.9 |
| 20260506212523 | 46 | 114 | 12.0 | 21.0 | 0.00 | 0.13 | 0.13 | 99 | 1018.6 |
| 20260506212030 | 52 | 126 | 2.0 | 4.0 | 0.03 | 0.10 | 0.10 | 86 | 1016.8 |
| 20260506211518 | 46 | 116 | 12.0 | 23.0 | 0.00 | 0.13 | 0.13 | 99 | 1018.6 |
| 20260506211026 | 52 | 33 | 1.0 | 3.0 | 0.03 | 0.09 | 0.09 | 86 | 1016.8 |
| 20260506210535 | 47 | 117 | 10.0 | 19.0 | 0.00 | 0.13 | 0.13 | 99 | 1018.6 |
| 20260506210023 | 52 | 47 | 1.0 | 3.0 | 0.03 | 0.09 | 0.09 | 84 | 1016.9 |
| 20260506205531 | 47 | 118 | 10.0 | 15.0 | 0.00 | 0.13 | 0.13 | 99 | 1018.6 |
| 20260506205019 | 52 | 52 | 1.0 | 2.0 | 0.02 | 0.09 | 0.09 | 86 | 1017.0 |
| 20260506204527 | 47 | 120 | 8.0 | 14.0 | 0.00 | 0.13 | 0.13 | 99 | 1018.7 |
| 20260506204055 | 53 | 85 | 2.0 | 5.0 | 0.02 | 0.08 | 0.08 | 82 | 1017.1 |
| 20260506203523 | 47 | 119 | 8.0 | 17.0 | 0.00 | 0.13 | 0.13 | 99 | 1018.9 |
| 20260506203033 | 53 | 68 | 2.0 | 3.0 | 0.01 | 0.07 | 0.07 | 78 | 1017.2 |
| 20260506202539 | 47 | 117 | 10.0 | 17.0 | 0.00 | 0.13 | 0.13 | 99 | 1018.8 |
| 20260506202048 | 53 | 99 | 2.0 | 3.0 | 0.00 | 0.07 | 0.07 | 76 | 1017.3 |
| 20260506201555 | 47 | 122 | 9.0 | 16.0 | 0.00 | 0.13 | 0.13 | 99 | 1018.9 |
| 20260506201045 | 53 | 109 | 2.0 | 4.0 | 0.00 | 0.06 | 0.06 | 74 | 1017.1 |
| 20260506200531 | 47 | 116 | 8.0 | 15.0 | 0.00 | 0.13 | 0.13 | 98 | 1018.9 |
| 20260506200021 | 54 | 158 | 2.0 | 4.0 | 0.00 | 0.06 | 0.06 | 73 | 1017.1 |
| 20260506195527 | 47 | 105 | 8.0 | 14.0 | 0.00 | 0.13 | 0.13 | 98 | 1018.9 |
| 20260506195017 | 53 | 167 | 3.0 | 5.0 | 0.00 | 0.06 | 0.06 | 73 | 1017.0 |
| 20260506194523 | 47 | 112 | 7.0 | 13.0 | 0.00 | 0.13 | 0.13 | 97 | 1019.0 |
| 20260506194034 | 53 | 147 | 2.0 | 3.0 | 0.00 | 0.06 | 0.06 | 77 | 1017.2 |
| 20260506193520 | 48 | 107 | 6.0 | 10.0 | 0.00 | 0.13 | 0.13 | 95 | 1018.8 |
| 20260506193031 | 53 | 106 | 2.0 | 4.0 | 0.00 | 0.06 | 0.06 | 80 | 1016.9 |
| 20260506192556 | 48 | 115 | 5.0 | 13.0 | 0.00 | 0.13 | 0.13 | 92 | 1018.8 |
| 20260506192027 | 53 | 136 | 3.0 | 4.0 | 0.00 | 0.06 | 0.06 | 76 | 1016.8 |
| 20260506191532 | 48 | 106 | 4.0 | 8.0 | 0.00 | 0.13 | 0.13 | 93 | 1018.8 |
| 20260506191104 | 53 | 149 | 3.0 | 4.0 | 0.00 | 0.06 | 0.06 | 78 | 1016.7 |
| 20260506190528 | 48 | 113 | 4.0 | 7.0 | 0.00 | 0.13 | 0.13 | 93 | 1018.5 |
| 20260506190019 | 53 | 140 | 3.0 | 4.0 | 0.00 | 0.06 | 0.06 | 80 | 1016.6 |
| 20260506185525 | 48 | 138 | 5.0 | 12.0 | 0.01 | 0.13 | 0.13 | 94 | 1018.6 |
| 20260506185016 | 54 | 97 | 2.0 | 3.0 | 0.00 | 0.06 | 0.06 | 77 | 1016.7 |
| 20260506184520 | 48 | 134 | 4.0 | 9.0 | 0.02 | 0.13 | 0.13 | 94 | 1018.5 |
| 20260506184032 | 54 | 129 | 2.0 | 3.0 | 0.00 | 0.06 | 0.06 | 73 | 1016.8 |
| 20260506183516 | 48 | 122 | 4.0 | 8.0 | 0.02 | 0.13 | 0.13 | 93 | 1018.4 |
| 20260506183029 | 54 | 155 | 1.0 | 3.0 | 0.00 | 0.06 | 0.06 | 74 | 1016.6 |
| 20260506182532 | 48 | 127 | 3.0 | 7.0 | 0.02 | 0.13 | 0.13 | 95 | 1018.5 |
| 20260506182145 | 54 | 139 | 2.0 | 4.0 | 0.00 | 0.06 | 0.06 | 74 | 1016.4 |
| 20260506181528 | 48 | 113 | 4.0 | 8.0 | 0.02 | 0.13 | 0.13 | 95 | 1018.4 |
| 20260506181021 | 54 | 146 | 3.0 | 6.0 | 0.00 | 0.06 | 0.06 | 75 | 1016.4 |
| 20260506180523 | 48 | 141 | 6.0 | 11.0 | 0.02 | 0.13 | 0.13 | 95 | 1018.4 |
| 20260506180017 | 54 | 155 | 4.0 | 6.0 | 0.00 | 0.06 | 0.06 | 77 | 1016.3 |
| 20260506175520 | 48 | 115 | 2.0 | 6.0 | 0.01 | 0.12 | 0.12 | 93 | 1018.3 |
| 20260506175034 | 54 | 150 | 3.0 | 4.0 | 0.00 | 0.06 | 0.06 | 77 | 1016.2 |
| 20260506174515 | 49 | 116 | 3.0 | 9.0 | 0.00 | 0.11 | 0.11 | 91 | 1018.3 |
| 20260506174030 | 54 | 147 | 3.0 | 6.0 | 0.00 | 0.06 | 0.06 | 76 | 1016.1 |
| 20260506173532 | 50 | 136 | 4.0 | 13.0 | 0.00 | 0.11 | 0.11 | 88 | 1018.3 |
| 20260506173027 | 54 | 163 | 4.0 | 5.0 | 0.00 | 0.06 | 0.06 | 76 | 1016.1 |
| 20260506172528 | 50 | 145 | 4.0 | 11.0 | 0.00 | 0.11 | 0.11 | 84 | 1018.3 |
| 20260506172124 | 55 | 162 | 4.0 | 7.0 | 0.00 | 0.06 | 0.06 | 75 | 1016.2 |
| 20260506171544 | 50 | 118 | 5.0 | 9.0 | 0.00 | 0.11 | 0.11 | 85 | 1018.2 |
| 20260506171019 | 56 | 118 | 1.0 | 2.0 | 0.00 | 0.06 | 0.06 | 72 | 1016.2 |
| 20260506170519 | 48 | 127 | 6.0 | 13.0 | 0.00 | 0.11 | 0.11 | 96 | 1018.2 |
| 20260506170016 | 56 | 95 | 1.0 | 3.0 | 0.00 | 0.06 | 0.06 | 71 | 1016.2 |
| 20260506165515 | 48 | 97 | 5.0 | 13.0 | 0.00 | 0.11 | 0.11 | 96 | 1018.3 |
| 20260506165032 | 56 | 125 | 2.0 | 4.0 | 0.00 | 0.06 | 0.06 | 71 | 1016.1 |
| 20260506164531 | 49 | 115 | 6.0 | 13.0 | 0.00 | 0.11 | 0.11 | 96 | 1018.4 |
| 20260506164049 | 56 | 149 | 2.0 | 5.0 | 0.00 | 0.06 | 0.06 | 70 | 1016.2 |
| 20260506163528 | 49 | 86 | 4.0 | 11.0 | 0.00 | 0.11 | 0.11 | 94 | 1018.4 |
| 20260506163025 | 56 | 164 | 3.0 | 5.0 | 0.00 | 0.06 | 0.06 | 69 | 1016.1 |
| 20260506162543 | 49 | 96 | 4.0 | 11.0 | 0.00 | 0.11 | 0.11 | 92 | 1018.5 |
| 20260506162021 | 57 | 162 | 3.0 | 8.0 | 0.00 | 0.06 | 0.06 | 67 | 1016.2 |
| 20260506161519 | 49 | 57 | 3.0 | 6.0 | 0.00 | 0.11 | 0.11 | 93 | 1018.5 |
| 20260506161018 | 57 | 163 | 3.0 | 5.0 | 0.00 | 0.06 | 0.06 | 68 | 1016.3 |
| 20260506160535 | 50 | 97 | 3.0 | 7.0 | 0.00 | 0.11 | 0.11 | 93 | 1018.6 |
| 20260506160054 | 57 | 169 | 4.0 | 8.0 | 0.00 | 0.06 | 0.06 | 67 | 1016.3 |
| 20260506155532 | 50 | 129 | 3.0 | 7.0 | 0.00 | 0.11 | 0.11 | 94 | 1018.7 |
| 20260506155051 | 57 | 173 | 4.0 | 7.0 | 0.00 | 0.06 | 0.06 | 68 | 1016.4 |
| 20260506154527 | 50 | 129 | 4.0 | 8.0 | 0.00 | 0.11 | 0.11 | 93 | 1018.6 |
| 20260506154027 | 57 | 170 | 5.0 | 9.0 | 0.00 | 0.06 | 0.06 | 67 | 1016.4 |
| 20260506153543 | 51 | 120 | 3.0 | 8.0 | 0.00 | 0.11 | 0.11 | 92 | 1018.5 |
| 20260506153023 | 57 | 175 | 6.0 | 9.0 | 0.00 | 0.06 | 0.06 | 69 | 1016.4 |
| 20260506152539 | 50 | 131 | 2.0 | 6.0 | 0.00 | 0.11 | 0.11 | 94 | 1018.6 |
| 20260506152040 | 57 | 177 | 5.0 | 9.0 | 0.00 | 0.06 | 0.06 | 70 | 1016.4 |
| 20260506151535 | 50 | 142 | 4.0 | 10.0 | 0.00 | 0.11 | 0.11 | 93 | 1018.8 |
| 20260506151016 | 57 | 182 | 5.0 | 9.0 | 0.00 | 0.06 | 0.06 | 70 | 1016.5 |
| 20260506150531 | 51 | 36 | 2.0 | 5.0 | 0.00 | 0.11 | 0.11 | 92 | 1018.8 |
| 20260506150032 | 57 | 175 | 5.0 | 8.0 | 0.00 | 0.06 | 0.06 | 71 | 1016.4 |
| 20260506145526 | 51 | 80 | 4.0 | 7.0 | 0.00 | 0.11 | 0.11 | 89 | 1018.9 |
| 20260506145029 | 57 | 178 | 4.0 | 9.0 | 0.00 | 0.06 | 0.06 | 70 | 1016.3 |
| 20260506144522 | 51 | 115 | 6.0 | 11.0 | 0.00 | 0.11 | 0.11 | 88 | 1018.7 |
| 20260506144025 | 57 | 175 | 4.0 | 7.0 | 0.00 | 0.06 | 0.06 | 71 | 1016.3 |
| 20260506143518 | 51 | 123 | 7.0 | 13.0 | 0.00 | 0.11 | 0.11 | 88 | 1018.7 |
| 20260506143022 | 58 | 198 | 4.0 | 8.0 | 0.00 | 0.06 | 0.06 | 71 | 1016.6 |
| 20260506142534 | 52 | 92 | 6.0 | 12.0 | 0.00 | 0.11 | 0.11 | 87 | 1018.8 |
| 20260506142018 | 58 | 174 | 3.0 | 9.0 | 0.00 | 0.06 | 0.06 | 69 | 1016.5 |
| 20260506141530 | 53 | 101 | 7.0 | 17.0 | 0.00 | 0.11 | 0.11 | 85 | 1018.8 |
| 20260506141035 | 59 | 199 | 4.0 | 7.0 | 0.00 | 0.06 | 0.06 | 68 | 1016.6 |
| 20260506140526 | 53 | 96 | 6.0 | 13.0 | 0.00 | 0.11 | 0.11 | 86 | 1018.8 |
| 20260506140031 | 60 | 181 | 3.0 | 7.0 | 0.00 | 0.06 | 0.06 | 66 | 1016.6 |
| 20260506135522 | 53 | 103 | 6.0 | 10.0 | 0.00 | 0.11 | 0.11 | 87 | 1018.7 |
| 20260506135027 | 60 | 226 | 2.0 | 6.0 | 0.00 | 0.06 | 0.06 | 63 | 1016.5 |
| 20260506134517 | 53 | 106 | 6.0 | 10.0 | 0.00 | 0.11 | 0.11 | 86 | 1018.8 |
| 20260506134043 | 60 | 172 | 2.0 | 5.0 | 0.00 | 0.06 | 0.06 | 62 | 1016.5 |
| 20260506133554 | 54 | 116 | 6.0 | 10.0 | 0.00 | 0.11 | 0.11 | 84 | 1018.8 |
| 20260506133020 | 61 | 223 | 2.0 | 5.0 | 0.00 | 0.06 | 0.06 | 68 | 1016.7 |
| 20260506132529 | 55 | 106 | 4.0 | 12.0 | 0.00 | 0.11 | 0.11 | 83 | 1019.0 |
| 20260506132016 | 62 | 95 | 1.0 | 2.0 | 0.00 | 0.06 | 0.06 | 69 | 1016.6 |
| 20260506131525 | 55 | 92 | 4.0 | 11.0 | 0.00 | 0.11 | 0.11 | 81 | 1019.1 |
| 20260506131133 | 63 | 127 | 1.0 | 2.0 | 0.00 | 0.06 | 0.06 | 65 | 1016.7 |
| 20260506130521 | 55 | 98 | 5.0 | 13.0 | 0.00 | 0.11 | 0.11 | 81 | 1019.2 |
| 20260506130029 | 61 | 40 | 0.0 | 3.0 | 0.00 | 0.06 | 0.06 | 66 | 1016.8 |
| 20260506125517 | 54 | 101 | 5.0 | 10.0 | 0.00 | 0.11 | 0.11 | 83 | 1019.2 |
| 20260506125026 | 63 | 23 | 0.0 | 2.0 | 0.00 | 0.06 | 0.06 | 69 | 1016.8 |
| 20260506124533 | 54 | 112 | 6.0 | 11.0 | 0.00 | 0.11 | 0.11 | 87 | 1019.3 |
| 20260506124022 | 63 | 73 | 1.0 | 2.0 | 0.00 | 0.06 | 0.06 | 70 | 1016.9 |
| 20260506123529 | 55 | 109 | 3.0 | 8.0 | 0.00 | 0.11 | 0.11 | 88 | 1019.3 |
| 20260506123019 | 62 | 350 | 1.0 | 3.0 | 0.00 | 0.06 | 0.06 | 72 | 1016.8 |
| 20260506122545 | 55 | 101 | 4.0 | 9.0 | 0.00 | 0.11 | 0.11 | 87 | 1019.3 |
| 20260506122034 | 63 | 360 | 1.0 | 2.0 | 0.00 | 0.06 | 0.06 | 69 | 1016.7 |
| 20260506121521 | 57 | 87 | 3.0 | 10.0 | 0.00 | 0.11 | 0.11 | 83 | 1019.2 |
| 20260506121030 | 65 | 43 | 1.0 | 6.0 | 0.00 | 0.06 | 0.06 | 67 | 1016.7 |
| 20260506120537 | 57 | 8 | 2.0 | 6.0 | 0.00 | 0.11 | 0.11 | 84 | 1019.1 |
| 20260506120027 | 65 | 80 | 1.0 | 3.0 | 0.00 | 0.06 | 0.06 | 67 | 1016.6 |
| 20260506115532 | 57 | 58 | 2.0 | 5.0 | 0.00 | 0.11 | 0.11 | 87 | 1019.2 |
| 20260506115023 | 66 | 125 | 0.0 | 2.0 | 0.00 | 0.06 | 0.06 | 58 | 1016.8 |
| 20260506114549 | 56 | 131 | 3.0 | 11.0 | 0.00 | 0.11 | 0.11 | 86 | 1019.2 |
| 20260506114019 | 64 | 355 | 0.0 | 3.0 | 0.00 | 0.06 | 0.06 | 67 | 1016.8 |
| 20260506113525 | 55 | 123 | 4.0 | 9.0 | 0.00 | 0.11 | 0.11 | 86 | 1019.3 |
| 20260506113016 | 63 | 0 | 1.0 | 4.0 | 0.00 | 0.06 | 0.06 | 72 | 1016.7 |
| 20260506112520 | 55 | 132 | 4.0 | 10.0 | 0.00 | 0.11 | 0.11 | 83 | 1019.1 |
| 20260506112113 | 62 | 303 | 1.0 | 4.0 | 0.00 | 0.06 | 0.06 | 74 | 1016.7 |
| 20260506111516 | 55 | 148 | 5.0 | 13.0 | 0.00 | 0.11 | 0.11 | 86 | 1019.2 |
| 20260506111029 | 64 | 26 | 1.0 | 4.0 | 0.00 | 0.06 | 0.06 | 56 | 1016.8 |
| 20260506110613 | 54 | 139 | 5.0 | 13.0 | 0.00 | 0.11 | 0.11 | 88 | 1019.3 |
| 20260506110025 | 64 | 328 | 2.0 | 5.0 | 0.00 | 0.06 | 0.06 | 59 | 1017.0 |
| 20260506105549 | 53 | 150 | 7.0 | 16.0 | 0.00 | 0.11 | 0.11 | 90 | 1019.3 |
| 20260506105022 | 63 | 322 | 2.0 | 6.0 | 0.00 | 0.06 | 0.06 | 61 | 1017.1 |
| 20260506104524 | 54 | 144 | 6.0 | 12.0 | 0.00 | 0.11 | 0.11 | 90 | 1019.2 |
| 20260506104018 | 61 | 313 | 1.0 | 5.0 | 0.00 | 0.06 | 0.06 | 67 | 1016.9 |
| 20260506103520 | 52 | 134 | 8.0 | 21.0 | 0.00 | 0.11 | 0.11 | 92 | 1018.9 |
| 20260506103035 | 61 | 306 | 2.0 | 4.0 | 0.00 | 0.06 | 0.06 | 74 | 1016.9 |
| 20260506102536 | 52 | 130 | 8.0 | 14.0 | 0.00 | 0.11 | 0.11 | 94 | 1019.0 |
| 20260506102031 | 61 | 329 | 2.0 | 4.0 | 0.00 | 0.06 | 0.06 | 74 | 1017.1 |
| 20260506101532 | 51 | 112 | 7.0 | 14.0 | 0.00 | 0.11 | 0.11 | 96 | 1019.1 |
| 20260506101027 | 59 | 330 | 1.0 | 5.0 | 0.00 | 0.06 | 0.06 | 82 | 1017.1 |
| 20260506100528 | 50 | 126 | 7.0 | 14.0 | 0.00 | 0.11 | 0.11 | 96 | 1019.0 |
| 20260506100023 | 58 | 11 | 0.0 | 3.0 | 0.00 | 0.06 | 0.06 | 84 | 1017.1 |
| 20260506095524 | 51 | 113 | 8.0 | 15.0 | 0.00 | 0.11 | 0.11 | 94 | 1019.1 |
| 20260506095020 | 59 | 36 | 1.0 | 3.0 | 0.00 | 0.07 | 0.06 | 83 | 1017.0 |
| 20260506094521 | 51 | 120 | 7.0 | 15.0 | 0.00 | 0.11 | 0.11 | 93 | 1019.0 |
| 20260506094016 | 57 | 29 | 1.0 | 3.0 | 0.00 | 0.07 | 0.06 | 88 | 1016.9 |